createdAt,value
2023-01-10T00:02:44.497Z,100142.34
2023-01-10T00:07:46.705Z,100160.09
2023-01-10T00:13:07.330Z,100161.56
2023-01-10T00:18:09.471Z,100177.28
2023-01-10T00:23:11.200Z,100197.56
2023-01-10T00:28:15.581Z,100196.50
2023-01-10T00:33:19.749Z,100207.38
2023-01-10T00:38:21.287Z,100220.09
2023-01-10T00:43:41.655Z,100229.28
2023-01-10T00:48:45.397Z,100242.84
2023-01-10T00:53:46.946Z,100248.81
2023-01-10T00:58:48.443Z,100257.22
2023-01-10T01:03:49.943Z,100261.50
2023-01-10T01:08:51.696Z,100279.06
2023-01-10T01:13:53.231Z,100293.88
2023-01-10T01:18:54.744Z,100319.56
2023-01-10T01:23:59.189Z,100337.56
2023-01-10T01:29:00.804Z,100363.69
2023-01-10T01:34:02.339Z,100383.47
2023-01-10T01:39:04.384Z,100408.97
2023-01-10T01:44:12.984Z,100416.41
2023-01-10T01:49:20.020Z,100437.19
2023-01-10T01:54:21.610Z,100461.56
2023-01-10T01:59:33.553Z,100483.69
2023-01-10T02:04:57.670Z,100495.66
2023-01-10T02:10:11.097Z,100501.47
2023-01-10T02:15:15.242Z,100515.25
2023-01-10T02:20:19.376Z,100532.38
2023-01-10T02:25:32.656Z,100533.88
2023-01-10T02:30:59.889Z,100544.75
2023-01-10T02:36:16.615Z,100548.94
2023-01-10T02:41:47.521Z,100556.44
2023-01-10T02:46:49.865Z,100554.56
2023-01-10T02:51:51.543Z,100561.97
2023-01-10T02:57:17.846Z,100574.25
2023-01-10T03:02:28.651Z,100576.97
2023-01-10T03:07:53.211Z,100584.06
2023-01-10T03:13:00.945Z,100586.97
2023-01-10T03:18:06.914Z,100580.31
2023-01-10T03:23:10.477Z,100592.28
2023-01-10T03:28:15.495Z,100596.59
2023-01-10T03:33:22.344Z,100602.78
2023-01-10T03:38:32.643Z,100618.19
2023-01-10T03:44:07.313Z,100623.03
2023-01-10T03:49:10.986Z,100614.91
2023-01-10T03:54:16.625Z,100606.91
2023-01-10T03:59:23.313Z,100608.16
2023-01-10T04:04:25.032Z,100628.94
2023-01-10T04:09:26.746Z,100644.94
2023-01-10T04:14:28.767Z,100646.03
2023-01-10T04:19:30.360Z,100653.69
2023-01-10T04:24:32.367Z,100668.03
2023-01-10T04:29:33.872Z,100670.22
2023-01-10T04:34:35.391Z,100672.38
2023-01-10T04:39:36.896Z,100668.25
2023-01-10T04:44:38.394Z,100681.66
2023-01-10T04:49:39.941Z,100707.09
2023-01-10T04:54:41.481Z,100729.84
2023-01-10T04:59:45.179Z,100728.63
2023-01-10T05:04:46.675Z,100747.78
2023-01-10T05:09:48.164Z,100750.34
2023-01-10T05:14:49.732Z,100762.69
2023-01-10T05:19:51.281Z,100776.09
2023-01-10T05:24:54.605Z,100772.38
2023-01-10T05:29:56.247Z,100784.41
2023-01-10T05:34:57.759Z,100782.06
2023-01-10T05:39:59.327Z,100784.41
2023-01-10T05:45:00.888Z,100793.09
2023-01-10T05:50:02.461Z,100804.28
2023-01-10T05:55:04.356Z,100794.47
2023-01-10T06:00:06.701Z,100806.16
2023-01-10T06:05:13.018Z,100823.13
2023-01-10T06:10:14.861Z,100822.44
2023-01-10T06:15:17.356Z,100828.91
2023-01-10T06:20:18.987Z,100829.75
2023-01-10T06:25:20.670Z,100834.53
2023-01-10T06:30:22.319Z,100838.91
2023-01-10T06:35:23.868Z,100846.88
2023-01-10T06:40:26.599Z,100861.47
2023-01-10T06:45:28.208Z,100886.91
2023-01-10T06:50:29.770Z,100905.56
2023-01-10T06:55:31.814Z,100910.75
2023-01-10T07:00:33.643Z,100892.41
2023-01-10T07:05:35.268Z,100911.78
2023-01-10T07:10:36.864Z,100928.34
2023-01-10T07:15:38.399Z,100942.78
2023-01-10T07:20:40.058Z,100943.97
2023-01-10T07:25:41.595Z,100956.16
2023-01-10T07:30:43.127Z,100960.72
2023-01-10T07:35:44.646Z,100951.69
2023-01-10T07:40:46.223Z,100952.16
2023-01-10T07:45:47.941Z,100962.16
2023-01-10T07:50:49.487Z,100965.66
2023-01-10T07:55:51.291Z,100985.63
2023-01-10T08:00:57.556Z,100986.09
2023-01-10T08:06:06.063Z,100996.16
2023-01-10T08:11:07.788Z,101012.41
2023-01-10T08:16:09.629Z,101015.41
2023-01-10T08:21:11.234Z,101025.03
2023-01-10T08:26:12.781Z,101027.88
2023-01-10T08:31:14.697Z,101046.53
2023-01-10T08:36:18.780Z,101060.25
2023-01-10T08:41:20.393Z,101062.09
2023-01-10T08:46:22.139Z,101070.19
2023-01-10T08:51:24.068Z,101074.56
2023-01-10T08:56:25.743Z,101085.53
2023-01-10T09:01:27.523Z,101094.53
2023-01-10T09:06:29.192Z,101099.09
2023-01-10T09:11:30.709Z,101111.22
2023-01-10T09:16:32.243Z,101119.53
2023-01-10T09:21:33.782Z,101143.59
2023-01-10T09:26:35.308Z,101147.81
2023-01-10T09:31:36.847Z,101175.63
2023-01-10T09:36:38.425Z,101210.81
2023-01-10T09:41:50.072Z,101240.38
2023-01-10T09:47:08.419Z,101261.75
2023-01-10T09:52:32.604Z,101297.66
2023-01-10T09:57:35.081Z,101319.50
2023-01-10T10:02:42.923Z,101335.00
2023-01-10T10:07:45.711Z,101346.69
2023-01-10T10:12:50.047Z,101356.81
2023-01-10T10:17:57.607Z,101361.53
2023-01-10T10:23:26.738Z,101392.78
2023-01-10T10:28:55.643Z,101407.66
2023-01-10T10:34:03.273Z,101418.09
2023-01-10T10:39:06.995Z,101430.03
2023-01-10T10:44:26.894Z,101423.63
2023-01-10T10:49:37.567Z,101442.03
2023-01-10T10:54:39.234Z,101517.69
2023-01-10T10:59:46.405Z,101526.28
2023-01-10T11:04:53.023Z,101513.63
2023-01-10T11:09:54.736Z,101497.09
2023-01-10T11:14:56.477Z,101504.78
2023-01-10T11:19:59.643Z,101513.53
2023-01-10T11:25:03.019Z,101533.47
2023-01-10T11:30:09.310Z,101520.41
2023-01-10T11:35:21.921Z,101508.00
2023-01-10T11:40:26.099Z,101484.31
2023-01-10T11:45:33.439Z,101493.44
2023-01-10T11:50:38.268Z,101493.69
2023-01-10T11:55:39.860Z,101531.41
2023-01-10T12:00:46.943Z,101529.72
2023-01-10T12:06:01.502Z,101552.22
2023-01-10T12:11:07.919Z,101559.19
2023-01-10T12:16:22.369Z,101557.53
2023-01-10T12:21:34.591Z,101523.03
2023-01-10T12:26:38.888Z,101491.47
2023-01-10T12:31:41.141Z,101456.91
2023-01-10T12:36:49.391Z,101390.75
2023-01-10T12:42:21.149Z,101308.22
2023-01-10T12:47:34.676Z,101296.81
2023-01-10T12:52:52.663Z,101241.22
2023-01-10T12:57:59.621Z,101230.22
2023-01-10T13:03:09.209Z,101217.13
2023-01-10T13:08:14.223Z,101197.91
2023-01-10T13:13:19.985Z,101196.19
2023-01-10T13:18:27.445Z,101187.81
2023-01-10T13:23:33.337Z,101165.16
2023-01-10T13:28:38.431Z,101109.00
2023-01-10T13:33:46.079Z,101072.16
2023-01-10T13:38:51.353Z,101029.22
2023-01-10T13:44:01.743Z,101012.47
2023-01-10T13:49:03.555Z,101010.63
2023-01-10T13:54:25.364Z,100991.00
2023-01-10T13:59:45.658Z,100980.84
2023-01-10T14:04:52.846Z,100966.59
2023-01-10T14:10:03.832Z,100974.19
2023-01-10T14:15:24.539Z,100970.25
2023-01-10T14:20:26.711Z,100950.97
2023-01-10T14:25:29.189Z,100958.38
2023-01-10T14:30:33.994Z,100936.81
2023-01-10T14:35:44.312Z,100926.34
2023-01-10T14:40:49.994Z,100911.06
2023-01-10T14:46:04.103Z,100918.97
2023-01-10T14:51:09.451Z,100915.31
2023-01-10T14:56:41.457Z,100886.13
2023-01-10T15:01:43.350Z,100881.19
2023-01-10T15:07:25.351Z,100882.16
2023-01-10T15:12:29.176Z,100880.41
2023-01-10T15:17:31.623Z,100865.63
2023-01-10T15:22:35.671Z,100861.31
2023-01-10T15:27:45.286Z,100872.03
2023-01-10T15:32:50.460Z,100855.16
2023-01-10T15:37:57.361Z,100847.59
2023-01-10T15:43:16.920Z,100822.81
2023-01-10T15:48:24.552Z,100812.81
2023-01-10T15:54:04.791Z,100804.63
2023-01-10T15:59:23.428Z,100816.44
2023-01-10T16:04:25.035Z,100803.78
2023-01-10T16:09:26.678Z,100810.38
2023-01-10T16:14:28.197Z,100792.44
2023-01-10T16:19:29.778Z,100776.97
2023-01-10T16:24:34.189Z,100770.03
2023-01-10T16:29:35.828Z,100768.38
2023-01-10T16:34:37.396Z,100763.59
2023-01-10T16:39:39.070Z,100754.69
2023-01-10T16:44:41.648Z,100749.31
2023-01-10T16:49:43.379Z,100757.13
2023-01-10T16:54:44.972Z,100755.25
2023-01-10T16:59:46.574Z,100756.72
2023-01-10T17:04:48.195Z,100742.31
2023-01-10T17:09:49.874Z,100733.50
2023-01-10T17:14:52.636Z,100733.84
2023-01-10T17:19:54.193Z,100732.84
2023-01-10T17:24:55.736Z,100734.06
2023-01-10T17:29:57.274Z,100737.63
2023-01-10T17:34:58.782Z,100727.66
2023-01-10T17:40:00.319Z,100725.22
2023-01-10T17:45:01.859Z,100721.50
2023-01-10T17:50:04.016Z,100697.09
2023-01-10T17:55:07.510Z,100678.13
2023-01-10T18:00:10.188Z,100689.47
2023-01-10T18:05:11.752Z,100675.09
2023-01-10T18:10:13.337Z,100670.59
2023-01-10T18:15:14.862Z,100659.94
2023-01-10T18:20:16.748Z,100648.69
2023-01-10T18:25:19.360Z,100639.28
2023-01-10T18:30:24.267Z,100632.47
2023-01-10T18:35:26.847Z,100620.16
2023-01-10T18:40:30.983Z,100617.50
2023-01-10T18:45:32.663Z,100602.00
2023-01-10T18:50:34.197Z,100591.59
2023-01-10T18:55:35.770Z,100580.09
2023-01-10T19:00:37.343Z,100577.63
2023-01-10T19:05:38.913Z,100568.41
2023-01-10T19:11:07.078Z,100555.66
2023-01-10T19:16:17.878Z,100546.91
2023-01-10T19:21:19.898Z,100522.66
2023-01-10T19:26:21.710Z,100464.84
2023-01-10T19:31:26.541Z,100466.13
2023-01-10T19:36:28.990Z,100464.44
2023-01-10T19:41:30.785Z,100445.00
2023-01-10T19:46:34.070Z,100446.47
2023-01-10T19:51:36.964Z,100421.56
2023-01-10T19:56:38.619Z,100423.03
2023-01-10T20:01:40.773Z,100417.19
2023-01-10T20:06:42.773Z,100412.56
2023-01-10T20:11:46.198Z,100407.13
2023-01-10T20:16:48.892Z,100421.78
2023-01-10T20:21:50.540Z,100419.91
2023-01-10T20:26:52.096Z,100428.91
2023-01-10T20:31:55.922Z,100415.09
2023-01-10T20:36:57.618Z,100423.06
2023-01-10T20:41:59.457Z,100431.63
2023-01-10T20:47:01.057Z,100438.53
2023-01-10T20:52:02.570Z,100444.38
2023-01-10T20:57:04.168Z,100441.44
2023-01-10T21:02:05.719Z,100432.84
2023-01-10T21:07:07.426Z,100438.88
2023-01-10T21:12:22.022Z,100433.22
2023-01-10T21:17:24.622Z,100436.56
2023-01-10T21:22:28.053Z,100437.22
2023-01-10T21:27:31.306Z,100439.34
2023-01-10T21:32:33.151Z,100436.84
2023-01-10T21:37:34.668Z,100440.44
2023-01-10T21:42:42.645Z,100420.75
2023-01-10T21:47:44.278Z,100416.19
2023-01-10T21:52:45.821Z,100399.03
2023-01-10T21:57:47.341Z,100405.97
2023-01-10T22:02:48.906Z,100405.56
2023-01-10T22:07:50.420Z,100391.75
2023-01-10T22:12:52.007Z,100383.56
2023-01-10T22:17:53.618Z,100385.47
2023-01-10T22:22:55.333Z,100376.25
2023-01-10T22:27:56.875Z,100368.09
2023-01-10T22:32:58.396Z,100362.41
2023-01-10T22:37:59.920Z,100361.56
2023-01-10T22:43:01.530Z,100360.94
2023-01-10T22:48:03.135Z,100343.94
2023-01-10T22:53:04.663Z,100338.47
2023-01-10T22:58:06.179Z,100329.66
2023-01-10T23:03:07.817Z,100317.50
2023-01-10T23:08:09.459Z,100305.09
2023-01-10T23:13:11.033Z,100307.16
2023-01-10T23:18:12.554Z,100292.03
2023-01-10T23:23:14.219Z,100280.47
2023-01-10T23:28:15.710Z,100277.94
2023-01-10T23:33:17.623Z,100269.97
2023-01-10T23:38:19.380Z,100270.78
2023-01-10T23:43:23.280Z,100259.66
2023-01-10T23:48:25.252Z,100270.16
2023-01-10T23:53:27.081Z,100278.34
2023-01-10T23:58:28.615Z,100274.78
